Time;durP1;ratioP1;P1;durP2;ratioP2;P2;SDS_P1;SDS_P2;PMS_P1;PMS_P2;Temp;Humidity;BMP_temperature;BMP_pressure;BME280_temperature;BME280_humidity;BME280_pressure;Samples;Min_cycle;Max_cycle;Signal;HPM_P1;HPM_P2
2023/05/25 00:00:09;;;;;;;;;;;;;;;17.21;62.59;99449.44;5074194;28;19915;-77
2023/05/25 00:02:34;;;;;;;;;;;;;;;17.22;62.13;99456.41;5074085;28;19905;-77
2023/05/25 00:05:01;;;;;;;;;;;;;;;17.18;62.97;99458.72;5074146;28;19909;-77
2023/05/25 00:07:26;;;;;;;;;;;;;;;17.15;62.42;99454.63;5073902;28;19912;-77
2023/05/25 00:09:51;;;;;;;;;;;;;;;17.13;62.71;99451.38;5073865;28;20312;-78
2023/05/25 00:12:17;;;;;;;;;;;;;;;17.14;62.87;99450.34;5073616;28;20400;-77
2023/05/25 00:14:42;;;;;;;;;;;;;;;17.16;62.25;99452.78;5073646;28;19914;-78
2023/05/25 00:17:08;;;;;;;;;;;;;;;17.17;62.68;99451.75;5072242;28;19923;-78
2023/05/25 00:19:34;;;;;;;;;;;;;;;17.22;62.17;99449.22;5073577;28;19947;-78
2023/05/25 00:22:02;;;;;;;;;;;;;;;17.18;62.69;99455.22;5073626;28;20373;-78
2023/05/25 00:24:28;;;;;;;;;;;;;;;17.15;62.68;99443.97;5073701;28;19912;-77
2023/05/25 00:26:54;;;;;;;;;;;;;;;17.12;62.95;99448.94;5073570;28;19908;-77
2023/05/25 00:29:20;;;;;;;;;;;;;;;17.12;62.57;99446.25;5073266;28;20389;-77
2023/05/25 00:31:45;;;;;;;;;;;;;;;17.06;62.68;99442.59;5073478;28;19908;-79
2023/05/25 00:34:10;;;;;;;;;;;;;;;17.06;62.86;99445.25;5073791;28;19995;-78
2023/05/25 00:36:36;;;;;;;;;;;;;;;17.05;62.74;99446.31;5073442;28;19908;-78
2023/05/25 00:39:01;;;;;;;;;;;;;;;17.08;62.51;99445.03;5072894;28;20303;-78
2023/05/25 00:41:26;;;;;;;;;;;;;;;17.10;62.56;99451.00;5072873;28;20396;-77
2023/05/25 00:43:52;;;;;;;;;;;;;;;16.99;62.27;99444.53;5073229;28;19915;-78
2023/05/25 00:46:17;;;;;;;;;;;;;;;16.94;62.74;99447.03;5073106;28;20363;-78
2023/05/25 00:48:42;;;;;;;;;;;;;;;16.95;63.54;99443.34;5073062;28;19917;-78
2023/05/25 00:51:08;;;;;;;;;;;;;;;17.01;62.75;99442.44;5073091;28;20335;-78
2023/05/25 00:53:35;;;;;;;;;;;;;;;17.04;62.62;99446.53;5072902;28;19916;-78
2023/05/25 00:56:14;;;;;;;;;;;;;;;17.05;62.33;99440.16;5073401;28;20042;-78
2023/05/25 00:58:41;;;;;;;;;;;;;;;17.05;62.80;99435.63;5073515;28;19908;-77
2023/05/25 01:01:10;;;;;;;;;;;;;;;17.01;62.49;99442.44;5074080;28;19909;-78
2023/05/25 01:03:37;;;;;;;;;;;;;;;16.98;63.05;99442.91;5072195;28;20316;-77
2023/05/25 01:06:03;;;;;;;;;;;;;;;16.92;62.53;99441.13;5072980;28;19916;-78
2023/05/25 01:08:30;;;;;;;;;;;;;;;16.89;63.48;99435.41;5072881;28;19912;-78
2023/05/25 01:10:56;;;;;;;;;;;;;;;16.89;63.26;99436.22;5072829;28;19912;-78
2023/05/25 01:13:21;;;;;;;;;;;;;;;16.87;62.92;99438.28;5072700;28;19916;-78
2023/05/25 01:15:47;;;;;;;;;;;;;;;16.84;62.98;99436.88;5071333;28;19978;-78
2023/05/25 01:18:16;;;;;;;;;;;;;;;16.81;63.22;99441.84;5072609;28;19905;-78
2023/05/25 01:20:57;;;;;;;;;;;;;;;16.77;62.29;99436.13;5072764;28;20393;-78
2023/05/25 01:23:25;;;;;;;;;;;;;;;16.68;63.03;99437.47;5071168;28;20392;-78
2023/05/25 01:25:52;;;;;;;;;;;;;;;16.65;62.96;99439.72;5072493;28;19915;-77
2023/05/25 01:28:21;;;;;;;;;;;;;;;16.61;63.03;99439.34;5072125;28;19920;-78
2023/05/25 01:30:48;;;;;;;;;;;;;;;16.59;63.31;99437.94;5072372;28;19912;-78
2023/05/25 01:33:14;;;;;;;;;;;;;;;16.52;62.77;99436.16;5072327;28;19908;-78
2023/05/25 01:35:40;;;;;;;;;;;;;;;16.44;63.02;99439.09;5070817;28;20480;-78
2023/05/25 01:38:07;;;;;;;;;;;;;;;16.41;62.71;99438.72;5071018;28;19979;-78
2023/05/25 01:40:32;;;;;;;;;;;;;;;16.36;63.26;99430.56;5072308;28;19913;-78
2023/05/25 01:42:58;;;;;;;;;;;;;;;16.31;63.06;99431.19;5072260;28;20278;-78
2023/05/25 01:45:23;;;;;;;;;;;;;;;16.31;63.16;99430.38;5072533;28;19915;-77
2023/05/25 01:47:56;;;;;;;;;;;;;;;16.29;63.16;99427.09;5072326;28;20007;-78
2023/05/25 01:50:21;;;;;;;;;;;;;;;16.25;63.13;99429.38;5072101;28;19915;-76
2023/05/25 01:52:52;;;;;;;;;;;;;;;16.27;63.04;99424.66;5072264;28;19901;-78
2023/05/25 01:55:18;;;;;;;;;;;;;;;16.29;62.82;99427.09;5072318;28;19908;-77
2023/05/25 01:57:45;;;;;;;;;;;;;;;16.27;63.28;99432.66;5072195;28;20015;-77
2023/05/25 02:00:14;;;;;;;;;;;;;;;16.30;62.95;99437.53;5071089;28;19908;-78
2023/05/25 02:02:40;;;;;;;;;;;;;;;16.36;62.72;99442.03;5072259;28;19966;-78
2023/05/25 02:05:06;;;;;;;;;;;;;;;16.39;62.81;99440.78;5070673;28;19918;-77
2023/05/25 02:07:32;;;;;;;;;;;;;;;16.41;62.61;99442.19;5071926;28;20010;-76
2023/05/25 02:09:57;;;;;;;;;;;;;;;16.45;62.75;99439.91;5072029;28;19915;-77
2023/05/25 02:12:22;;;;;;;;;;;;;;;16.48;62.76;99442.13;5070777;28;19908;-77
2023/05/25 02:14:48;;;;;;;;;;;;;;;16.50;62.71;99448.88;5072321;28;19909;-77
2023/05/25 02:17:13;;;;;;;;;;;;;;;16.50;62.50;99440.06;5072206;28;20309;-77
2023/05/25 02:19:39;;;;;;;;;;;;;;;16.48;62.56;99448.28;5070447;28;19960;-77
2023/05/25 02:22:04;;;;;;;;;;;;;;;16.48;62.42;99442.94;5071595;28;19915;-77
2023/05/25 02:24:30;;;;;;;;;;;;;;;16.47;62.60;99443.16;5071742;28;20438;-79
2023/05/25 02:26:55;;;;;;;;;;;;;;;16.48;62.20;99442.94;5071631;28;19927;-77
2023/05/25 02:29:20;;;;;;;;;;;;;;;16.39;63.01;99438.94;5071504;28;19916;-77
2023/05/25 02:31:46;;;;;;;;;;;;;;;16.39;62.92;99441.59;5071817;28;19908;-77
2023/05/25 02:34:12;;;;;;;;;;;;;;;16.39;62.59;99438.94;5071644;28;19916;-78
2023/05/25 02:36:38;;;;;;;;;;;;;;;16.38;62.35;99439.97;5071426;28;20309;-77
2023/05/25 02:39:03;;;;;;;;;;;;;;;16.38;62.68;99444.47;5071492;28;19915;-77
2023/05/25 02:41:29;;;;;;;;;;;;;;;16.36;63.02;99458.03;5071733;28;19909;-77
2023/05/25 02:43:54;;;;;;;;;;;;;;;16.33;62.65;99454.94;5071547;28;19999;-77
2023/05/25 02:46:19;;;;;;;;;;;;;;;16.32;62.71;99456.78;5071476;28;19908;-77
2023/05/25 02:48:46;;;;;;;;;;;;;;;16.30;62.48;99444.72;5071420;28;19959;-78
2023/05/25 02:51:11;;;;;;;;;;;;;;;16.32;62.46;99454.13;5071853;28;19934;-77
2023/05/25 02:53:36;;;;;;;;;;;;;;;16.34;62.81;99452.06;5071668;28;19908;-77
2023/05/25 02:56:03;;;;;;;;;;;;;;;16.30;62.89;99456.19;5071358;28;19915;-77
2023/05/25 02:58:29;;;;;;;;;;;;;;;16.30;62.72;99456.19;5071706;28;19908;-78
2023/05/25 03:00:54;;;;;;;;;;;;;;;16.28;62.79;99452.94;5071966;28;19908;-78
2023/05/25 03:03:19;;;;;;;;;;;;;;;16.25;62.64;99458.69;5072945;28;20376;-78
2023/05/25 03:05:45;;;;;;;;;;;;;;;16.21;62.30;99462.81;5075010;28;19970;-78
2023/05/25 03:08:10;;;;;;;;;;;;;;;16.21;62.73;99463.63;5075228;28;19912;-78
2023/05/25 03:10:35;;;;;;;;;;;;;;;16.25;62.38;99461.34;5074828;28;20381;-77
2023/05/25 03:13:01;;;;;;;;;;;;;;;16.28;62.68;99471.56;5074731;28;19943;-77
2023/05/25 03:15:26;;;;;;;;;;;;;;;16.28;62.52;99460.09;5074887;28;19909;-77
2023/05/25 03:17:52;;;;;;;;;;;;;;;16.29;62.43;99467.88;5073825;28;20013;-76
2023/05/25 03:20:19;;;;;;;;;;;;;;;16.28;62.23;99473.44;5074902;28;19908;-77
2023/05/25 03:22:44;;;;;;;;;;;;;;;16.29;62.35;99469.72;5074798;28;19908;-77
2023/05/25 03:25:13;;;;;;;;;;;;;;;16.33;62.65;99465.59;5074810;28;19990;-76
2023/05/25 03:27:38;;;;;;;;;;;;;;;16.35;62.15;99468.88;5074663;28;19917;-77
2023/05/25 03:30:04;;;;;;;;;;;;;;;16.37;62.00;99466.81;5075773;28;19914;-76
2023/05/25 03:32:29;;;;;;;;;;;;;;;16.39;62.44;99472.75;5075489;28;19987;-77
2023/05/25 03:34:55;;;;;;;;;;;;;;;16.38;62.77;99474.59;5074475;28;20292;-77
2023/05/25 03:37:20;;;;;;;;;;;;;;;16.42;62.66;99475.81;5074617;28;19908;-77
2023/05/25 03:39:45;;;;;;;;;;;;;;;16.45;62.67;99474.56;5073171;28;19912;-77
2023/05/25 03:42:10;;;;;;;;;;;;;;;16.45;62.19;99478.03;5074326;28;19961;-78
2023/05/25 03:44:36;;;;;;;;;;;;;;;16.50;62.54;99475.53;5073021;28;19908;-78
2023/05/25 03:47:01;;;;;;;;;;;;;;;16.52;61.84;99476.13;5074079;28;19915;-77
2023/05/25 03:49:26;;;;;;;;;;;;;;;16.55;62.31;99479.38;5074035;28;19908;-77
2023/05/25 03:51:52;;;;;;;;;;;;;;;16.58;62.33;99489.63;5073097;28;19909;-78
2023/05/25 03:54:17;;;;;;;;;;;;;;;16.57;62.19;99487.97;5074384;28;19915;-77
2023/05/25 03:56:42;;;;;;;;;;;;;;;16.59;62.15;99484.06;5074052;28;20436;-78
2023/05/25 03:59:07;;;;;;;;;;;;;;;16.63;61.95;99490.59;5073959;28;19912;-77
2023/05/25 04:01:37;;;;;;;;;;;;;;;16.68;62.11;99489.97;5074069;28;20000;-78
2023/05/25 04:04:03;;;;;;;;;;;;;;;16.71;62.20;99484.19;5074259;28;19999;-78
2023/05/25 04:06:28;;;;;;;;;;;;;;;16.76;62.81;99489.69;5073945;28;19995;-78
2023/05/25 04:08:54;;;;;;;;;;;;;;;16.80;62.32;99493.53;5072656;28;20305;-78
2023/05/25 04:11:19;;;;;;;;;;;;;;;16.84;62.85;99498.22;5072445;28;19952;-78
2023/05/25 04:13:45;;;;;;;;;;;;;;;16.88;62.50;99495.94;5073676;28;19923;-78
2023/05/25 04:16:11;;;;;;;;;;;;;;;16.93;62.52;99496.09;5073735;28;19905;-77
2023/05/25 04:18:37;;;;;;;;;;;;;;;16.98;62.67;99488.25;5073560;28;19909;-78
2023/05/25 04:21:02;;;;;;;;;;;;;;;17.02;61.93;99489.44;5073555;28;20365;-78
2023/05/25 04:23:27;;;;;;;;;;;;;;;17.08;62.22;99504.53;5073476;28;19977;-78
2023/05/25 04:25:53;;;;;;;;;;;;;;;17.12;62.65;99508.44;5073335;28;19912;-78
2023/05/25 04:28:18;;;;;;;;;;;;;;;17.13;62.17;99501.25;5073153;28;19916;-77
2023/05/25 04:30:43;;;;;;;;;;;;;;;17.14;62.24;99514.38;5073344;28;19909;-77
2023/05/25 04:33:10;;;;;;;;;;;;;;;17.18;62.23;99508.59;5072065;28;19908;-78
2023/05/25 04:35:35;;;;;;;;;;;;;;;17.22;62.17;99507.09;5073436;28;19965;-78
2023/05/25 04:38:01;;;;;;;;;;;;;;;17.24;61.79;99511.19;5073286;28;19908;-77
2023/05/25 04:40:26;;;;;;;;;;;;;;;17.26;61.81;99513.63;5073293;28;19909;-78
2023/05/25 04:42:52;;;;;;;;;;;;;;;17.28;61.49;99512.38;5073187;28;19915;-77
2023/05/25 04:45:20;;;;;;;;;;;;;;;17.32;61.25;99507.41;5073208;28;19909;-76
2023/05/25 04:47:46;;;;;;;;;;;;;;;17.34;62.02;99508.00;5072951;28;19913;-77
2023/05/25 04:50:11;;;;;;;;;;;;;;;17.38;61.74;99512.66;5073082;28;19958;-77
2023/05/25 04:52:37;;;;;;;;;;;;;;;17.43;61.62;99512.00;5072855;28;19908;-77
2023/05/25 04:55:02;;;;;;;;;;;;;;;17.47;61.72;99515.84;5072862;28;19991;-78
2023/05/25 04:57:46;;;;;;;;;;;;;;;17.53;61.66;99509.63;5072953;28;19908;-78
2023/05/25 05:00:14;;;;;;;;;;;;;;;17.58;61.85;99512.44;5071569;28;20007;-77
2023/05/25 05:02:39;;;;;;;;;;;;;;;17.63;62.25;99512.56;5072910;28;19971;-77
2023/05/25 05:05:05;;;;;;;;;;;;;;;17.67;61.81;99508.44;5072809;28;19934;-78
2023/05/25 05:07:30;;;;;;;;;;;;;;;17.75;61.33;99510.81;5072664;28;19912;-78
2023/05/25 05:09:55;;;;;;;;;;;;;;;17.80;61.55;99515.47;5072783;28;19962;-78
2023/05/25 05:12:21;;;;;;;;;;;;;;;17.88;61.59;99512.50;5072749;28;19983;-78
2023/05/25 05:14:46;;;;;;;;;;;;;;;17.92;60.85;99520.88;5071093;28;19912;-78
2023/05/25 05:17:11;;;;;;;;;;;;;;;17.91;61.28;99524.59;5058703;28;19917;-77
2023/05/25 05:19:36;;;;;;;;;;;;;;;17.94;61.28;99516.94;5062363;28;20298;-78
2023/05/25 05:22:03;;;;;;;;;;;;;;;17.99;61.23;99517.09;5065241;28;19916;-78
2023/05/25 05:24:28;;;;;;;;;;;;;;;18.00;61.01;99509.88;5054818;28;19913;-78
2023/05/25 05:26:53;;;;;;;;;;;;;;;18.02;61.29;99505.94;5051791;28;19908;-78
2023/05/25 05:29:19;;;;;;;;;;;;;;;18.10;61.21;99521.66;5052354;28;20363;-77
2023/05/25 05:31:44;;;;;;;;;;;;;;;18.21;61.06;99527.25;5053545;28;19912;-75
2023/05/25 05:34:09;;;;;;;;;;;;;;;18.29;60.52;99519.72;5052975;28;19909;-75
2023/05/25 05:36:35;;;;;;;;;;;;;;;18.38;60.36;99526.38;5060132;28;19913;-76
2023/05/25 05:39:00;;;;;;;;;;;;;;;18.45;59.90;99522.78;5061536;28;19927;-78
2023/05/25 05:41:26;;;;;;;;;;;;;;;18.49;59.93;99524.78;5070256;28;19938;-78
2023/05/25 05:43:51;;;;;;;;;;;;;;;18.56;59.91;99524.66;5052006;28;20403;-77
2023/05/25 05:46:16;;;;;;;;;;;;;;;18.60;60.03;99520.53;5051886;28;19963;-78
2023/05/25 05:48:42;;;;;;;;;;;;;;;18.62;60.19;99521.94;5064526;28;20313;-78
2023/05/25 05:51:07;;;;;;;;;;;;;;;18.65;59.98;99520.66;5059902;28;19935;-78
2023/05/25 05:53:34;;;;;;;;;;;;;;;18.68;60.67;99525.56;5051913;28;19966;-78
2023/05/25 05:55:59;;;;;;;;;;;;;;;18.64;60.80;99527.88;5055565;28;19986;-78
2023/05/25 05:58:25;;;;;;;;;;;;;;;18.70;60.58;99524.28;5070599;28;20404;-78
2023/05/25 06:00:51;;;;;;;;;;;;;;;18.76;60.57;99530.56;5060934;28;19969;-78
2023/05/25 06:03:17;;;;;;;;;;;;;;;18.83;60.42;99525.91;5072324;28;19964;-77
2023/05/25 06:05:42;;;;;;;;;;;;;;;18.91;60.48;99532.78;5071484;28;19917;-78
2023/05/25 06:08:08;;;;;;;;;;;;;;;19.01;60.28;99533.00;5061218;28;20409;-77
2023/05/25 06:10:34;;;;;;;;;;;;;;;19.07;60.22;99537.44;5052731;28;20007;-77
2023/05/25 06:12:59;;;;;;;;;;;;;;;19.13;60.45;99533.00;5051694;28;20000;-78
2023/05/25 06:15:24;;;;;;;;;;;;;;;19.16;60.17;99537.91;5052703;28;19996;-77
2023/05/25 06:17:50;;;;;;;;;;;;;;;19.24;60.02;99535.66;5067230;28;19916;-78
2023/05/25 06:20:15;;;;;;;;;;;;;;;19.34;60.24;99543.16;5071412;28;20292;-77
2023/05/25 06:22:40;;;;;;;;;;;;;;;19.43;60.04;99541.72;5071524;28;19909;-77
2023/05/25 06:25:06;;;;;;;;;;;;;;;19.52;59.33;99551.06;5069877;28;20308;-77
2023/05/25 06:27:31;;;;;;;;;;;;;;;19.63;58.69;99541.38;5051989;28;19922;-77
2023/05/25 06:29:56;;;;;;;;;;;;;;;19.65;58.62;99540.06;5068258;28;19917;-77
2023/05/25 06:32:21;;;;;;;;;;;;;;;19.72;58.71;99542.63;5071638;28;19943;-77
2023/05/25 06:34:47;;;;;;;;;;;;;;;19.79;58.61;99540.63;5051388;28;19995;-78
2023/05/25 06:37:13;;;;;;;;;;;;;;;19.87;59.01;99539.44;5051373;28;19959;-77
2023/05/25 06:39:40;;;;;;;;;;;;;;;19.96;60.08;99538.00;5053986;28;19916;-77
2023/05/25 06:42:06;;;;;;;;;;;;;;;20.03;59.11;99537.84;5054517;28;19999;-77
2023/05/25 06:44:31;;;;;;;;;;;;;;;20.11;59.38;99542.84;5055911;28;19986;-78
2023/05/25 06:46:56;;;;;;;;;;;;;;;20.17;59.33;99541.91;5055744;28;19916;-77
2023/05/25 06:49:22;;;;;;;;;;;;;;;20.21;58.63;99537.69;5056326;28;19916;-77
2023/05/25 06:51:49;;;;;;;;;;;;;;;20.28;58.32;99541.84;5056752;28;19913;-78
2023/05/25 06:54:15;;;;;;;;;;;;;;;20.35;58.52;99539.00;5055422;28;19908;-77
2023/05/25 06:56:40;;;;;;;;;;;;;;;20.42;58.68;99534.31;5055201;28;20305;-78
2023/05/25 06:59:05;;;;;;;;;;;;;;;20.49;58.20;99531.50;5056034;28;19912;-78
2023/05/25 07:01:31;;;;;;;;;;;;;;;20.53;58.53;99533.44;5072163;28;19912;-79
2023/05/25 07:03:56;;;;;;;;;;;;;;;20.58;57.47;99530.03;5075015;28;20373;-78
2023/05/25 07:06:21;;;;;;;;;;;;;;;20.56;57.39;99529.47;5072836;28;20003;-78
2023/05/25 07:08:46;;;;;;;;;;;;;;;20.60;57.52;99527.91;5068552;28;20381;-77
2023/05/25 07:11:13;;;;;;;;;;;;;;;20.68;57.18;99521.34;5074957;28;19912;-78
2023/05/25 07:13:38;;;;;;;;;;;;;;;20.75;57.42;99530.84;5075090;28;19956;-77
2023/05/25 07:16:03;;;;;;;;;;;;;;;20.84;57.81;99526.72;5075496;28;20333;-77
2023/05/25 07:18:29;;;;;;;;;;;;;;;20.95;57.30;99527.69;5075387;28;19908;-78
2023/05/25 07:20:54;;;;;;;;;;;;;;;21.03;57.71;99529.94;5055656;28;19913;-78
2023/05/25 07:23:19;;;;;;;;;;;;;;;21.11;58.23;99536.78;5055050;28;20484;-77
2023/05/25 07:25:44;;;;;;;;;;;;;;;21.18;57.92;99532.03;5053780;28;19965;-77
2023/05/25 07:28:10;;;;;;;;;;;;;;;21.21;58.06;99531.53;5054637;28;19917;-77
2023/05/25 07:30:35;;;;;;;;;;;;;;;21.30;57.82;99532.78;5053642;28;19916;-77
2023/05/25 07:33:00;;;;;;;;;;;;;;;21.35;57.01;99538.22;5054874;28;19960;-77
2023/05/25 07:35:26;;;;;;;;;;;;;;;21.39;57.24;99536.66;5053289;28;19909;-78
2023/05/25 07:38:01;;;;;;;;;;;;;;;21.47;56.85;99533.53;5054656;28;19908;-78
2023/05/25 07:40:27;;;;;;;;;;;;;;;21.52;56.69;99533.59;5055815;28;20309;-77
2023/05/25 07:42:52;;;;;;;;;;;;;;;21.58;56.23;99539.06;5054807;28;19909;-76
2023/05/25 07:45:18;;;;;;;;;;;;;;;21.67;56.27;99543.75;5057578;28;19912;-77
2023/05/25 07:47:43;;;;;;;;;;;;;;;21.76;56.04;99544.13;5074610;28;19916;-77
2023/05/25 07:50:08;;;;;;;;;;;;;;;21.83;55.89;99534.81;5072639;28;19913;-77
2023/05/25 07:52:34;;;;;;;;;;;;;;;21.88;55.66;99547.47;5069465;28;19962;-77
2023/05/25 07:54:59;;;;;;;;;;;;;;;21.93;55.22;99550.22;5067555;28;20313;-77
2023/05/25 07:57:24;;;;;;;;;;;;;;;21.93;55.26;99550.22;5053785;28;19995;-78
2023/05/25 07:59:50;;;;;;;;;;;;;;;22.00;54.82;99540.09;5053811;28;19908;-78
2023/05/25 08:02:15;;;;;;;;;;;;;;;22.08;54.53;99557.69;5054722;28;20369;-78
2023/05/25 08:04:40;;;;;;;;;;;;;;;22.08;54.54;99553.13;5066471;28;19930;-78
2023/05/25 08:07:06;;;;;;;;;;;;;;;22.13;54.50;99555.84;5061188;28;19913;-78
2023/05/25 08:09:31;;;;;;;;;;;;;;;22.14;54.97;99551.28;5061173;28;20441;-77
2023/05/25 08:11:56;;;;;;;;;;;;;;;22.18;54.35;99553.22;5053614;28;19915;-77
2023/05/25 08:14:22;;;;;;;;;;;;;;;22.33;54.61;99549.09;5063771;28;19912;-78
2023/05/25 08:16:48;;;;;;;;;;;;;;;22.49;54.76;99548.16;5053517;28;19909;-78
2023/05/25 08:19:13;;;;;;;;;;;;;;;22.59;53.98;99542.06;5068693;28;20312;-78
2023/05/25 08:21:39;;;;;;;;;;;;;;;22.63;53.02;99543.16;5073392;28;19913;-77
2023/05/25 08:24:04;;;;;;;;;;;;;;;22.65;53.68;99541.03;5073054;28;19991;-77
2023/05/25 08:26:30;;;;;;;;;;;;;;;22.69;52.55;99544.81;5057301;28;19952;-77
2023/05/25 08:28:56;;;;;;;;;;;;;;;22.71;52.09;99546.19;5054045;28;19924;-77
2023/05/25 08:31:21;;;;;;;;;;;;;;;22.76;52.05;99538.16;5053733;28;19972;-78
2023/05/25 08:33:46;;;;;;;;;;;;;;;22.89;52.67;99538.81;5053792;28;19909;-77
2023/05/25 08:36:12;;;;;;;;;;;;;;;22.99;51.85;99541.56;5052114;28;19913;-78
2023/05/25 08:38:37;;;;;;;;;;;;;;;23.03;50.49;99540.78;5052120;28;19908;-77
2023/05/25 08:41:04;;;;;;;;;;;;;;;23.06;52.29;99539.50;5052057;28;20043;-79
2023/05/25 08:43:30;;;;;;;;;;;;;;;23.04;51.45;99537.06;5052550;28;19912;-78
2023/05/25 08:45:58;;;;;;;;;;;;;;;23.03;52.39;99542.69;5072936;28;19913;-78
2023/05/25 08:48:26;;;;;;;;;;;;;;;23.08;51.94;99535.47;5072757;28;19912;-78
2023/05/25 08:50:52;;;;;;;;;;;;;;;23.19;51.73;99535.53;5071604;28;20282;-77
2023/05/25 08:53:17;;;;;;;;;;;;;;;23.37;51.46;99543.97;5071125;28;19966;-78
2023/05/25 08:55:43;;;;;;;;;;;;;;;23.46;50.83;99530.81;5057060;28;20007;-77
2023/05/25 08:58:13;;;;;;;;;;;;;;;23.44;50.92;99539.16;5069029;28;20384;-78
2023/05/25 09:00:41;;;;;;;;;;;;;;;23.45;50.87;99530.00;5070547;28;20367;-77
2023/05/25 09:03:12;;;;;;;;;;;;;;;23.54;50.71;99526.81;5070449;28;20317;-77
2023/05/25 09:05:38;;;;;;;;;;;;;;;23.72;50.17;99529.88;5067562;28;20301;-78
2023/05/25 09:08:05;;;;;;;;;;;;;;;23.94;50.56;99520.81;5072268;28;20659;-78
2023/05/25 09:10:31;;;;;;;;;;;;;;;24.16;49.92;99517.88;5072009;28;19919;-78
2023/05/25 09:12:58;;;;;;;;;;;;;;;24.44;49.84;99521.97;5069016;28;19929;-79
2023/05/25 09:15:23;;;;;;;;;;;;;;;24.73;49.92;99520.38;5072456;28;19908;-77
2023/05/25 09:17:48;;;;;;;;;;;;;;;24.82;48.73;99517.94;5072485;28;19916;-78
2023/05/25 09:20:14;;;;;;;;;;;;;;;24.75;49.13;99520.94;5072231;28;19909;-78
2023/05/25 09:22:40;;;;;;;;;;;;;;;24.81;48.79;99513.63;5067989;28;19912;-77
2023/05/25 09:25:07;;;;;;;;;;;;;;;25.01;49.00;99519.84;5051967;28;19916;-78
2023/05/25 09:27:34;;;;;;;;;;;;;;;25.18;47.66;99506.00;5061908;28;19916;-78
2023/05/25 09:30:00;;;;;;;;;;;;;;;25.40;47.94;99504.88;5072231;28;20313;-77
2023/05/25 09:32:25;;;;;;;;;;;;;;;25.64;46.61;99498.56;5072308;28;20381;-77
2023/05/25 09:34:52;;;;;;;;;;;;;;;25.94;46.72;99497.63;5072137;28;19909;-78
2023/05/25 09:37:20;;;;;;;;;;;;;;;26.18;46.27;99496.94;5072228;28;19909;-78
2023/05/25 09:39:46;;;;;;;;;;;;;;;26.37;45.75;99495.19;5072112;28;20309;-78
2023/05/25 09:42:11;;;;;;;;;;;;;;;26.39;46.83;99462.44;5072329;28;20381;-79
2023/05/25 09:44:37;;;;;;;;;;;;;;;26.73;45.19;99492.19;5071615;28;19966;-77
2023/05/25 09:47:03;;;;;;;;;;;;;;;26.77;45.86;99487.84;5072123;28;19908;-77
2023/05/25 09:49:28;;;;;;;;;;;;;;;26.97;46.21;99484.91;5072643;28;19908;-76
2023/05/25 09:51:54;;;;;;;;;;;;;;;27.13;44.35;99478.28;5070536;28;19912;-77
2023/05/25 09:54:21;;;;;;;;;;;;;;;27.38;43.96;99479.06;5066245;28;19917;-78
2023/05/25 09:56:47;;;;;;;;;;;;;;;27.64;41.89;99488.53;5072273;28;20365;-76
2023/05/25 09:59:12;;;;;;;;;;;;;;;27.80;43.87;99486.44;5072006;28;19942;-77
2023/05/25 10:01:38;;;;;;;;;;;;;;;27.68;44.24;99478.72;5072076;28;19915;-77
2023/05/25 10:04:03;;;;;;;;;;;;;;;27.42;43.74;99469.25;5063265;28;19919;-76
2023/05/25 10:06:30;;;;;;;;;;;;;;;27.44;44.88;99473.28;5051981;28;19940;-76
2023/05/25 10:08:59;;;;;;;;;;;;;;;27.43;43.38;99468.16;5052441;28;20009;-77
2023/05/25 10:11:26;;;;;;;;;;;;;;;27.23;43.23;99459.19;5068040;28;19924;-78
2023/05/25 10:13:52;;;;;;;;;;;;;;;26.90;42.95;99466.28;5060231;28;19938;-78
2023/05/25 10:16:17;;;;;;;;;;;;;;;26.71;44.56;99464.56;5054324;28;19931;-77
2023/05/25 10:18:46;;;;;;;;;;;;;;;26.58;44.52;99466.84;5051374;28;20305;-78
2023/05/25 10:21:12;;;;;;;;;;;;;;;26.62;44.94;99461.69;5051795;28;20376;-78
2023/05/25 10:23:40;;;;;;;;;;;;;;;26.42;45.87;99462.69;5051454;28;19909;-76
2023/05/25 10:26:07;;;;;;;;;;;;;;;26.27;45.21;99460.88;5050479;28;19974;-78
2023/05/25 10:28:36;;;;;;;;;;;;;;;26.20;44.53;99459.59;5051538;28;19917;-78
2023/05/25 10:31:02;;;;;;;;;;;;;;;26.15;44.83;99463.13;5051756;28;19908;-78
2023/05/25 10:33:27;;;;;;;;;;;;;;;26.05;45.86;99457.00;5051733;28;20317;-78
2023/05/25 10:35:53;;;;;;;;;;;;;;;25.96;46.23;99460.25;5051771;28;19915;-79
2023/05/25 10:38:18;;;;;;;;;;;;;;;26.09;45.35;99458.84;5070010;28;19955;-77
2023/05/25 10:40:49;;;;;;;;;;;;;;;25.94;45.89;99459.75;5072269;28;19909;-77
2023/05/25 10:43:16;;;;;;;;;;;;;;;25.67;46.08;99458.56;5072061;28;19918;-77
2023/05/25 10:45:42;;;;;;;;;;;;;;;25.87;46.24;99458.44;5070170;28;19908;-77
2023/05/25 10:48:07;;;;;;;;;;;;;;;25.97;45.86;99455.66;5071698;28;19927;-78
2023/05/25 10:50:36;;;;;;;;;;;;;;;26.46;44.77;99446.66;5071616;28;19908;-77
2023/05/25 10:53:05;;;;;;;;;;;;;;;27.09;43.45;99441.19;5071553;28;19996;-77
2023/05/25 10:55:49;;;;;;;;;;;;;;;27.14;43.28;99436.50;5071611;28;19908;-77
2023/05/25 10:58:15;;;;;;;;;;;;;;;27.25;42.90;99441.81;5071877;28;19909;-77
2023/05/25 11:00:41;;;;;;;;;;;;;;;27.72;43.10;99449.91;5071724;28;19908;-77
2023/05/25 11:03:06;;;;;;;;;;;;;;;28.10;42.84;99430.88;5071703;28;19908;-79
2023/05/25 11:05:33;;;;;;;;;;;;;;;28.63;39.54;99450.41;5071879;28;20347;-78
2023/05/25 11:08:00;;;;;;;;;;;;;;;28.85;37.98;99448.94;5069730;28;19912;-76
2023/05/25 11:10:44;;;;;;;;;;;;;;;28.82;39.49;99452.22;5060108;28;19912;-78
2023/05/25 11:13:21;;;;;;;;;;;;;;;28.47;38.19;99439.00;5057133;28;19924;-77
2023/05/25 11:16:05;;;;;;;;;;;;;;;28.27;40.36;99446.69;5071370;28;20057;-77
2023/05/25 11:18:40;;;;;;;;;;;;;;;28.01;40.12;99427.22;5071773;28;19962;-76
2023/05/25 11:21:12;;;;;;;;;;;;;;;27.76;41.49;99428.44;5069141;28;19908;-77
2023/05/25 11:23:50;;;;;;;;;;;;;;;27.57;42.44;99431.09;5048617;28;19965;-76
2023/05/25 11:26:20;;;;;;;;;;;;;;;27.32;42.59;99434.13;5053152;28;19916;-76
2023/05/25 11:28:46;;;;;;;;;;;;;;;27.10;41.91;99427.34;5053267;28;19921;-76
2023/05/25 11:31:12;;;;;;;;;;;;;;;26.91;41.62;99426.47;5052292;28;19909;-78
2023/05/25 11:33:37;;;;;;;;;;;;;;;26.75;42.78;99428.50;5054229;28;20043;-77
2023/05/25 11:36:04;;;;;;;;;;;;;;;26.67;43.03;99429.13;5054379;28;19971;-76
2023/05/25 11:38:30;;;;;;;;;;;;;;;26.55;43.65;99434.94;5054262;28;20286;-75
2023/05/25 11:40:55;;;;;;;;;;;;;;;26.47;43.25;99429.34;5054088;28;19920;-76
2023/05/25 11:43:22;;;;;;;;;;;;;;;26.42;43.64;99424.78;5054119;28;19912;-77
2023/05/25 11:45:54;;;;;;;;;;;;;;;26.39;43.71;99429.94;5055337;28;19912;-77
2023/05/25 11:48:19;;;;;;;;;;;;;;;26.44;43.27;99427.19;5056558;28;19966;-77
2023/05/25 11:50:45;;;;;;;;;;;;;;;26.62;42.99;99418.34;5062743;28;19916;-76
2023/05/25 11:53:10;;;;;;;;;;;;;;;26.95;41.75;99408.53;5074137;28;19908;-77
2023/05/25 11:55:39;;;;;;;;;;;;;;;27.29;42.08;99416.53;5074056;28;19908;-78
2023/05/25 11:58:05;;;;;;;;;;;;;;;27.27;41.56;99418.75;5072685;28;20321;-77
2023/05/25 12:00:31;;;;;;;;;;;;;;;27.25;42.89;99420.94;5073888;28;19915;-78
2023/05/25 12:02:56;;;;;;;;;;;;;;;27.33;42.36;99412.16;5073809;28;19908;-77
2023/05/25 12:05:23;;;;;;;;;;;;;;;27.43;42.59;99406.59;5072189;28;19969;-77
2023/05/25 12:07:48;;;;;;;;;;;;;;;27.52;41.03;99409.47;5073652;28;19913;-78
2023/05/25 12:10:17;;;;;;;;;;;;;;;27.58;40.71;99392.03;5072654;28;19920;-77
2023/05/25 12:12:43;;;;;;;;;;;;;;;27.44;41.37;99394.66;5063099;28;19998;-77
2023/05/25 12:15:10;;;;;;;;;;;;;;;27.19;40.97;99395.78;5075382;28;19915;-77
2023/05/25 12:17:36;;;;;;;;;;;;;;;27.01;41.86;99391.16;5063221;28;19921;-78
2023/05/25 12:20:01;;;;;;;;;;;;;;;26.84;43.03;99393.50;5072992;28;19911;-77
2023/05/25 12:22:27;;;;;;;;;;;;;;;26.69;43.62;99390.94;5073783;28;20301;-77
2023/05/25 12:24:52;;;;;;;;;;;;;;;26.43;43.20;99403.91;5057293;28;19908;-78
2023/05/25 12:27:18;;;;;;;;;;;;;;;26.22;44.66;99416.81;5053181;28;19916;-77
2023/05/25 12:29:47;;;;;;;;;;;;;;;26.05;45.38;99408.28;5057232;28;20375;-76
2023/05/25 12:32:12;;;;;;;;;;;;;;;25.87;45.80;99415.16;5071447;28;20381;-78
2023/05/25 12:34:37;;;;;;;;;;;;;;;25.67;46.05;99412.59;5073091;28;19915;-78
2023/05/25 12:37:03;;;;;;;;;;;;;;;25.48;46.91;99412.41;5072588;28;19920;-78
2023/05/25 12:39:28;;;;;;;;;;;;;;;25.34;47.61;99412.22;5066576;28;19919;-79
2023/05/25 12:41:54;;;;;;;;;;;;;;;25.22;47.77;99412.50;5051776;28;20459;-77